Time;durP1;ratioP1;P1;durP2;ratioP2;P2;SDS_P1;SDS_P2;PMS_P1;PMS_P2;Temp;Humidity;BMP_temperature;BMP_pressure;BME280_temperature;BME280_humidity;BME280_pressure;Samples;Min_cycle;Max_cycle;Signal;HPM_P1;HPM_P2
2022/12/06 00:01:30;;;;;;;1.33;0.27;;;;;;;;;;6166085;23;20031;-54
2022/12/06 00:03:58;;;;;;;2.78;0.52;;;;;;;;;;6169982;23;20020;-55
2022/12/06 00:06:26;;;;;;;2.20;0.40;;;;;;;;;;6165113;23;20021;-55
2022/12/06 00:08:54;;;;;;;1.50;0.43;;;;;;;;;;6168300;23;20416;-53
2022/12/06 00:11:22;;;;;;;2.58;0.63;;;;;;;;;;6161724;23;20028;-54
2022/12/06 00:13:52;;;;;;;2.03;0.40;;;;;;;;;;6170071;23;20044;-52
2022/12/06 00:16:18;;;;;;;1.30;0.20;;;;;;;;;;6168066;23;20349;-55
2022/12/06 00:18:45;;;;;;;1.35;0.20;;;;;;;;;;6171038;23;20460;-55
2022/12/06 00:21:12;;;;;;;2.90;0.47;;;;;;;;;;6166574;23;20021;-54
2022/12/06 00:23:44;;;;;;;1.48;0.43;;;;;;;;;;6170142;23;20049;-55
2022/12/06 00:26:12;;;;;;;1.27;0.27;;;;;;;;;;6171266;23;20017;-51
2022/12/06 00:28:39;;;;;;;2.55;0.75;;;;;;;;;;6140089;23;20703;-52
2022/12/06 00:31:07;;;;;;;1.45;0.38;;;;;;;;;;6169017;23;20049;-55
2022/12/06 00:33:35;;;;;;;1.35;0.38;;;;;;;;;;6168623;23;20405;-54
2022/12/06 00:36:02;;;;;;;2.15;0.20;;;;;;;;;;6169438;23;20017;-54
2022/12/06 00:38:28;;;;;;;0.87;0.13;;;;;;;;;;6167826;23;20017;-56
2022/12/06 00:40:58;;;;;;;2.92;1.05;;;;;;;;;;6169970;23;20027;-56
2022/12/06 00:43:26;;;;;;;1.98;0.30;;;;;;;;;;6167233;23;20009;-53
2022/12/06 00:45:53;;;;;;;1.45;0.52;;;;;;;;;;6170974;23;20135;-55
2022/12/06 00:48:19;;;;;;;1.48;0.40;;;;;;;;;;6167373;23;20017;-54
2022/12/06 00:50:46;;;;;;;1.30;0.33;;;;;;;;;;6167042;23;20017;-55
2022/12/06 00:53:12;;;;;;;2.33;0.32;;;;;;;;;;6166732;23;20024;-53
2022/12/06 00:55:39;;;;;;;1.30;0.50;;;;;;;;;;6169014;23;20301;-55
2022/12/06 00:58:05;;;;;;;1.48;0.30;;;;;;;;;;6168113;23;20021;-55
2022/12/06 01:00:33;;;;;;;1.40;0.40;;;;;;;;;;6171392;23;20013;-52
2022/12/06 01:03:00;;;;;;;3.83;0.50;;;;;;;;;;6166286;23;20444;-55
2022/12/06 01:05:27;;;;;;;1.63;0.43;;;;;;;;;;6168904;23;20463;-54
2022/12/06 01:07:53;;;;;;;1.58;0.40;;;;;;;;;;6164587;23;20025;-56
2022/12/06 01:10:20;;;;;;;1.13;0.20;;;;;;;;;;6167192;23;20440;-55
2022/12/06 01:12:47;;;;;;;1.10;0.20;;;;;;;;;;6165953;23;20025;-53
2022/12/06 01:15:13;;;;;;;1.90;0.50;;;;;;;;;;6164611;23;20017;-56
2022/12/06 01:17:41;;;;;;;1.40;0.40;;;;;;;;;;6167057;23;20021;-52
2022/12/06 01:20:08;;;;;;;2.30;0.50;;;;;;;;;;6169540;23;20079;-57
2022/12/06 01:22:34;;;;;;;1.35;0.30;;;;;;;;;;6166710;23;20020;-54
2022/12/06 01:25:04;;;;;;;1.33;0.40;;;;;;;;;;6168187;23;20031;-55
2022/12/06 01:27:31;;;;;;;1.77;0.47;;;;;;;;;;6164031;23;20447;-56
2022/12/06 01:29:58;;;;;;;1.50;0.32;;;;;;;;;;6168807;23;20063;-56
2022/12/06 01:32:24;;;;;;;2.35;1.05;;;;;;;;;;6165768;23;20017;-55
2022/12/06 01:34:52;;;;;;;1.58;0.40;;;;;;;;;;6170746;23;20020;-55
2022/12/06 01:37:18;;;;;;;2.65;0.50;;;;;;;;;;6164131;23;20079;-52
2022/12/06 01:39:45;;;;;;;2.50;0.50;;;;;;;;;;6170910;23;20017;-56
2022/12/06 01:42:12;;;;;;;1.88;0.75;;;;;;;;;;6166193;23;20013;-56
2022/12/06 01:44:40;;;;;;;1.88;0.57;;;;;;;;;;6172293;23;20017;-56
2022/12/06 01:47:10;;;;;;;2.05;0.60;;;;;;;;;;6165594;23;20097;-55
2022/12/06 01:49:37;;;;;;;1.85;0.40;;;;;;;;;;6166343;23;20025;-56
2022/12/06 01:52:07;;;;;;;1.63;0.50;;;;;;;;;;6170624;23;20017;-54
2022/12/06 01:54:34;;;;;;;1.70;0.52;;;;;;;;;;6164482;23;20013;-55
2022/12/06 01:57:02;;;;;;;1.35;0.20;;;;;;;;;;6166180;23;20071;-55
2022/12/06 01:59:29;;;;;;;2.13;0.40;;;;;;;;;;6170117;23;20084;-56
2022/12/06 02:01:55;;;;;;;0.98;0.20;;;;;;;;;;6166563;23;20025;-53
2022/12/06 02:04:22;;;;;;;1.07;0.20;;;;;;;;;;6169358;23;20770;-53
2022/12/06 02:06:50;;;;;;;0.93;0.25;;;;;;;;;;6164047;23;20021;-55
2022/12/06 02:09:18;;;;;;;1.25;0.22;;;;;;;;;;6170419;23;20076;-56
2022/12/06 02:11:46;;;;;;;1.67;0.43;;;;;;;;;;6164719;23;20021;-55
2022/12/06 02:14:14;;;;;;;1.42;0.40;;;;;;;;;;6166353;23;20071;-55
2022/12/06 02:16:47;;;;;;;2.60;0.77;;;;;;;;;;6167754;23;20091;-56
2022/12/06 02:19:24;;;;;;;1.35;0.30;;;;;;;;;;6168564;23;20017;-55
2022/12/06 02:21:53;;;;;;;1.42;0.35;;;;;;;;;;6170690;23;20028;-56
2022/12/06 02:24:48;;;;;;;2.40;0.60;;;;;;;;;;6164912;23;20489;-56
2022/12/06 02:27:30;;;;;;;1.50;0.30;;;;;;;;;;6161663;23;20017;-56
2022/12/06 02:30:09;;;;;;;1.10;0.20;;;;;;;;;;6171280;23;20013;-54
2022/12/06 02:32:41;;;;;;;2.33;0.40;;;;;;;;;;6135097;23;20108;-55
2022/12/06 02:35:10;;;;;;;2.55;0.75;;;;;;;;;;6170596;23;20013;-56
2022/12/06 02:37:37;;;;;;;2.45;0.93;;;;;;;;;;6164151;23;20475;-52
2022/12/06 02:40:07;;;;;;;1.08;0.25;;;;;;;;;;6166062;23;20021;-53
2022/12/06 02:42:34;;;;;;;1.20;0.23;;;;;;;;;;6166530;23;20048;-56
2022/12/06 02:45:02;;;;;;;1.05;0.20;;;;;;;;;;6167799;23;20106;-54
2022/12/06 02:47:32;;;;;;;2.95;0.55;;;;;;;;;;6166033;23;20021;-56
2022/12/06 02:50:01;;;;;;;0.98;0.15;;;;;;;;;;6164498;23;20044;-55
2022/12/06 02:52:28;;;;;;;2.13;0.57;;;;;;;;;;6168861;23;20440;-56
2022/12/06 02:54:56;;;;;;;1.63;0.53;;;;;;;;;;6166371;23;20072;-54
2022/12/06 02:57:27;;;;;;;1.13;0.35;;;;;;;;;;6166793;23;20032;-54
2022/12/06 02:59:54;;;;;;;1.45;0.35;;;;;;;;;;6166245;23;20021;-55
2022/12/06 03:02:21;;;;;;;2.38;0.63;;;;;;;;;;6169316;23;20017;-53
2022/12/06 03:04:55;;;;;;;1.58;0.40;;;;;;;;;;6163427;23;20522;-56
2022/12/06 03:07:38;;;;;;;1.50;0.57;;;;;;;;;;6171263;23;20017;-55
2022/12/06 03:10:30;;;;;;;1.27;0.20;;;;;;;;;;6163818;23;20444;-54
2022/12/06 03:13:01;;;;;;;1.85;0.32;;;;;;;;;;6156465;23;20020;-56
2022/12/06 03:15:33;;;;;;;1.25;0.30;;;;;;;;;;6167718;23;20036;-55
2022/12/06 03:18:04;;;;;;;1.40;0.43;;;;;;;;;;6167844;23;20415;-55
2022/12/06 03:20:41;;;;;;;1.87;0.30;;;;;;;;;;6170310;23;20017;-52
2022/12/06 03:23:11;;;;;;;2.10;0.90;;;;;;;;;;6166507;23;20432;-53
2022/12/06 03:25:38;;;;;;;1.50;0.38;;;;;;;;;;6171913;23;20016;-51
2022/12/06 03:28:10;;;;;;;1.25;0.20;;;;;;;;;;6164848;23;20067;-50
2022/12/06 03:30:37;;;;;;;1.38;0.20;;;;;;;;;;6170665;23;20017;-49
2022/12/06 03:33:04;;;;;;;1.37;0.37;;;;;;;;;;6165284;23;20013;-49
2022/12/06 03:35:32;;;;;;;1.40;0.43;;;;;;;;;;6172352;23;20466;-51
2022/12/06 03:38:04;;;;;;;1.33;0.22;;;;;;;;;;6158769;23;20013;-48
2022/12/06 03:40:33;;;;;;;2.15;0.80;;;;;;;;;;6172026;23;20017;-50
2022/12/06 03:43:00;;;;;;;1.40;0.30;;;;;;;;;;6139781;23;20032;-50
2022/12/06 03:45:28;;;;;;;2.03;0.97;;;;;;;;;;6146302;23;20036;-51
2022/12/06 03:47:57;;;;;;;1.50;0.35;;;;;;;;;;6144318;23;20020;-53
2022/12/06 03:50:27;;;;;;;8.98;0.45;;;;;;;;;;6141697;23;20216;-51
2022/12/06 03:52:54;;;;;;;1.38;0.32;;;;;;;;;;6161096;23;20491;-49
2022/12/06 03:55:20;;;;;;;1.85;0.55;;;;;;;;;;6171127;23;20067;-49
2022/12/06 03:57:48;;;;;;;1.20;0.40;;;;;;;;;;6168629;23;20020;-50
2022/12/06 04:00:16;;;;;;;1.80;0.32;;;;;;;;;;6165096;23;20013;-52
2022/12/06 04:02:43;;;;;;;1.52;0.47;;;;;;;;;;6164181;23;20029;-49
2022/12/06 04:05:09;;;;;;;1.67;0.50;;;;;;;;;;6169113;23;20025;-49
2022/12/06 04:07:36;;;;;;;1.42;0.22;;;;;;;;;;6167741;23;20017;-51
2022/12/06 04:10:02;;;;;;;2.67;0.53;;;;;;;;;;6168220;23;20017;-52
2022/12/06 04:15:14;;;;;;;4.82;0.90;;;;;;;;;;6163740;23;20021;-49
2022/12/06 04:20:26;;;;;;;1.65;0.65;;;;;;;;;;6167903;23;20040;-53
2022/12/06 04:23:03;;;;;;;1.10;0.30;;;;;;;;;;6168483;23;20511;-50
2022/12/06 04:25:30;;;;;;;1.67;0.40;;;;;;;;;;6172622;23;20640;-51
2022/12/06 04:38:57;;;;;;;1.92;0.60;;;;;;;;;;6172434;23;20021;-50
2022/12/06 04:44:07;;;;;;;1.50;0.43;;;;;;;;;;6166680;23;20087;-52
2022/12/06 04:46:35;;;;;;;1.20;0.20;;;;;;;;;;6170272;23;20020;-51
2022/12/06 04:49:01;;;;;;;2.27;0.30;;;;;;;;;;6153534;23;20079;-51
2022/12/06 04:51:28;;;;;;;2.33;0.57;;;;;;;;;;6167500;23;20071;-49
2022/12/06 04:53:55;;;;;;;1.40;0.30;;;;;;;;;;6141337;23;20677;-52
2022/12/06 04:56:21;;;;;;;0.95;0.20;;;;;;;;;;6167188;23;20443;-51
2022/12/06 04:58:48;;;;;;;1.75;0.45;;;;;;;;;;6168579;23;20079;-51
2022/12/06 05:01:14;;;;;;;1.17;0.20;;;;;;;;;;6163886;23;20391;-49
2022/12/06 05:03:42;;;;;;;1.00;0.20;;;;;;;;;;6166418;23;20017;-49
2022/12/06 05:06:08;;;;;;;1.10;0.45;;;;;;;;;;6167826;23;20021;-53
2022/12/06 05:08:35;;;;;;;1.23;0.25;;;;;;;;;;6162303;23;20087;-52
2022/12/06 05:11:01;;;;;;;2.05;0.60;;;;;;;;;;6169815;23;20013;-48
2022/12/06 05:13:28;;;;;;;1.00;0.20;;;;;;;;;;6168627;23;20024;-49
2022/12/06 05:15:55;;;;;;;1.83;0.35;;;;;;;;;;6170519;23;20021;-50
2022/12/06 05:18:21;;;;;;;1.52;0.38;;;;;;;;;;6165371;23;20013;-50
2022/12/06 05:20:50;;;;;;;1.35;0.30;;;;;;;;;;6169235;23;20064;-53
2022/12/06 05:23:16;;;;;;;1.27;0.28;;;;;;;;;;6168762;23;20017;-50
2022/12/06 05:25:43;;;;;;;1.07;0.17;;;;;;;;;;6165184;23;20044;-52
2022/12/06 05:28:09;;;;;;;1.10;0.28;;;;;;;;;;6165402;23;20017;-52
2022/12/06 05:30:36;;;;;;;2.20;0.68;;;;;;;;;;6167178;23;20017;-49
2022/12/06 05:33:06;;;;;;;1.23;0.30;;;;;;;;;;6169220;23;20071;-50
2022/12/06 05:35:33;;;;;;;1.17;0.20;;;;;;;;;;6166141;23;20013;-50
2022/12/06 05:38:00;;;;;;;1.03;0.20;;;;;;;;;;6169116;23;20021;-52
2022/12/06 05:40:27;;;;;;;5.50;0.30;;;;;;;;;;6166129;23;20067;-53
2022/12/06 05:42:53;;;;;;;0.93;0.17;;;;;;;;;;6173868;23;20017;-49
2022/12/06 05:45:20;;;;;;;1.20;0.20;;;;;;;;;;6163166;23;20071;-50
2022/12/06 05:47:46;;;;;;;2.80;1.05;;;;;;;;;;6171269;23;20016;-49
2022/12/06 05:50:13;;;;;;;1.27;0.40;;;;;;;;;;6155732;23;20068;-51
2022/12/06 05:52:39;;;;;;;1.67;0.52;;;;;;;;;;6170394;23;20024;-50
2022/12/06 05:55:08;;;;;;;0.93;0.13;;;;;;;;;;6163292;23;20120;-53
2022/12/06 05:57:34;;;;;;;0.90;0.10;;;;;;;;;;6170915;23;20013;-53
2022/12/06 06:00:01;;;;;;;1.00;0.30;;;;;;;;;;6163581;23;20024;-51
2022/12/06 06:02:28;;;;;;;1.33;0.30;;;;;;;;;;6167434;23;20448;-48
2022/12/06 06:04:55;;;;;;;1.05;0.20;;;;;;;;;;6168314;23;20076;-52
2022/12/06 06:07:21;;;;;;;1.33;0.30;;;;;;;;;;6165399;23;20027;-52
2022/12/06 06:09:48;;;;;;;0.90;0.15;;;;;;;;;;6163899;23;20017;-49
2022/12/06 06:12:17;;;;;;;0.93;0.13;;;;;;;;;;6171443;23;20017;-53
2022/12/06 06:14:43;;;;;;;0.90;0.17;;;;;;;;;;6167483;23;20370;-49
2022/12/06 06:17:10;;;;;;;1.10;0.20;;;;;;;;;;6166740;23;20020;-49
2022/12/06 06:19:36;;;;;;;2.13;0.40;;;;;;;;;;6168350;23;20470;-49
2022/12/06 06:22:03;;;;;;;1.55;0.50;;;;;;;;;;6167747;23;20447;-50
2022/12/06 06:24:35;;;;;;;2.35;0.47;;;;;;;;;;6169530;23;20039;-53
2022/12/06 06:27:02;;;;;;;1.50;0.30;;;;;;;;;;6163556;23;20013;-57
2022/12/06 06:29:30;;;;;;;6.78;0.40;;;;;;;;;;6168771;23;20565;-52
2022/12/06 06:31:57;;;;;;;1.40;0.20;;;;;;;;;;6167526;23;20063;-55
2022/12/06 06:34:27;;;;;;;0.90;0.20;;;;;;;;;;6168646;23;20099;-53
2022/12/06 06:36:53;;;;;;;1.25;0.30;;;;;;;;;;6167421;23;20387;-53
2022/12/06 06:39:20;;;;;;;0.90;0.20;;;;;;;;;;6164239;23;20024;-52
2022/12/06 06:41:47;;;;;;;1.33;0.40;;;;;;;;;;6163719;23;20020;-51
2022/12/06 06:44:13;;;;;;;1.27;0.30;;;;;;;;;;6163578;23;20017;-57
2022/12/06 06:46:41;;;;;;;0.85;0.10;;;;;;;;;;6166352;23;20503;-52
2022/12/06 06:49:07;;;;;;;1.10;0.20;;;;;;;;;;6168080;23;20025;-55
2022/12/06 06:51:34;;;;;;;1.30;0.50;;;;;;;;;;6167106;23;20753;-52
2022/12/06 06:54:00;;;;;;;1.00;0.20;;;;;;;;;;6166099;23;20017;-51
2022/12/06 06:56:27;;;;;;;1.38;0.30;;;;;;;;;;6164009;23;20512;-55
2022/12/06 06:58:53;;;;;;;0.80;0.10;;;;;;;;;;6168120;23;20017;-54
2022/12/06 07:01:21;;;;;;;1.00;0.20;;;;;;;;;;6158884;23;20067;-54
2022/12/06 07:03:50;;;;;;;1.17;0.27;;;;;;;;;;6168805;23;20526;-54
2022/12/06 07:06:17;;;;;;;1.48;0.63;;;;;;;;;;6164536;23;20025;-54
2022/12/06 07:08:45;;;;;;;1.65;0.30;;;;;;;;;;6166404;23;20044;-55
2022/12/06 07:11:12;;;;;;;1.55;0.22;;;;;;;;;;6165208;23;20067;-54
2022/12/06 07:13:39;;;;;;;2.10;0.40;;;;;;;;;;6168986;23;20403;-53
2022/12/06 07:16:06;;;;;;;2.20;0.70;;;;;;;;;;6161537;23;20035;-57
2022/12/06 07:18:33;;;;;;;1.08;0.22;;;;;;;;;;6169561;23;20028;-56
2022/12/06 07:21:02;;;;;;;1.20;0.22;;;;;;;;;;6161413;23;20013;-54
2022/12/06 07:23:29;;;;;;;1.88;0.50;;;;;;;;;;6169364;23;20017;-56
2022/12/06 07:26:02;;;;;;;1.25;0.30;;;;;;;;;;6164721;23;20025;-54
2022/12/06 07:28:28;;;;;;;1.40;0.33;;;;;;;;;;6166308;23;20060;-55
2022/12/06 07:30:55;;;;;;;1.73;0.70;;;;;;;;;;6165981;23;20025;-55
2022/12/06 07:33:21;;;;;;;1.27;0.30;;;;;;;;;;6165670;23;20017;-54
2022/12/06 07:35:52;;;;;;;1.10;0.20;;;;;;;;;;6165132;23;20021;-52
2022/12/06 07:38:20;;;;;;;2.05;0.73;;;;;;;;;;6169314;23;20459;-55
2022/12/06 07:40:46;;;;;;;1.00;0.20;;;;;;;;;;6165398;23;20044;-54
2022/12/06 07:45:58;;;;;;;1.10;0.20;;;;;;;;;;6169716;23;20136;-57
2022/12/06 07:48:24;;;;;;;1.95;0.50;;;;;;;;;;6166869;23;20009;-56
2022/12/06 07:50:51;;;;;;;1.73;0.45;;;;;;;;;;6171906;23;20017;-55
2022/12/06 07:53:18;;;;;;;1.33;0.30;;;;;;;;;;6166447;23;20743;-55
2022/12/06 07:55:46;;;;;;;1.42;0.43;;;;;;;;;;6168951;23;20079;-51
2022/12/06 07:58:12;;;;;;;2.63;1.50;;;;;;;;;;6167397;23;20017;-52
2022/12/06 08:00:40;;;;;;;3.67;0.30;;;;;;;;;;6167789;23;20013;-52
2022/12/06 08:03:07;;;;;;;1.05;0.20;;;;;;;;;;6157564;23;20021;-51
2022/12/06 08:05:34;;;;;;;1.40;0.40;;;;;;;;;;6166402;23;20027;-50
2022/12/06 08:08:00;;;;;;;2.47;0.40;;;;;;;;;;6163296;23;20024;-51
2022/12/06 08:10:27;;;;;;;1.17;0.20;;;;;;;;;;6167265;23;20044;-55
2022/12/06 08:12:54;;;;;;;0.95;0.20;;;;;;;;;;6166017;23;20041;-55
2022/12/06 08:15:21;;;;;;;0.98;0.15;;;;;;;;;;6166500;23;20021;-50
2022/12/06 08:17:48;;;;;;;0.90;0.10;;;;;;;;;;6166494;23;20021;-52
2022/12/06 08:20:14;;;;;;;1.50;0.68;;;;;;;;;;6166826;23;20024;-52
2022/12/06 08:22:41;;;;;;;1.00;0.20;;;;;;;;;;6165617;23;20452;-54
2022/12/06 08:25:08;;;;;;;1.27;0.20;;;;;;;;;;6164574;23;20017;-55
2022/12/06 08:27:34;;;;;;;2.28;0.50;;;;;;;;;;6168909;23;20068;-52
2022/12/06 08:30:02;;;;;;;1.60;0.40;;;;;;;;;;6167345;23;20071;-50
2022/12/06 08:32:28;;;;;;;1.08;0.30;;;;;;;;;;6168046;23;20320;-55
2022/12/06 08:34:55;;;;;;;1.27;0.20;;;;;;;;;;6167871;23;20032;-56
2022/12/06 08:37:25;;;;;;;1.50;0.50;;;;;;;;;;6166260;23;20546;-54
2022/12/06 08:39:52;;;;;;;1.58;0.38;;;;;;;;;;6167313;23;20021;-52
2022/12/06 08:42:18;;;;;;;1.20;0.20;;;;;;;;;;6163589;23;20017;-54
2022/12/06 08:44:45;;;;;;;1.10;0.20;;;;;;;;;;6168455;23;20013;-53
2022/12/06 08:47:12;;;;;;;1.02;0.20;;;;;;;;;;6166011;23;20060;-54
2022/12/06 08:49:39;;;;;;;0.90;0.15;;;;;;;;;;6165737;23;20024;-51
2022/12/06 08:52:06;;;;;;;1.02;0.15;;;;;;;;;;6167732;23;20017;-54
2022/12/06 08:54:34;;;;;;;0.80;0.10;;;;;;;;;;6169318;23;20456;-53
2022/12/06 08:57:00;;;;;;;1.13;0.20;;;;;;;;;;6165452;23;20064;-51
2022/12/06 08:59:27;;;;;;;1.73;0.75;;;;;;;;;;6166570;23;20293;-54
2022/12/06 09:01:53;;;;;;;0.93;0.10;;;;;;;;;;6166975;23;20016;-53
2022/12/06 09:04:22;;;;;;;1.20;0.20;;;;;;;;;;6163216;23;20029;-51
2022/12/06 09:06:48;;;;;;;1.30;0.30;;;;;;;;;;6169429;23;20017;-52
2022/12/06 09:09:16;;;;;;;1.27;0.30;;;;;;;;;;6160068;23;20013;-54
2022/12/06 09:11:42;;;;;;;1.15;0.28;;;;;;;;;;6163908;23;20017;-52
2022/12/06 09:14:10;;;;;;;1.30;0.30;;;;;;;;;;6166970;23;20017;-53
2022/12/06 09:16:37;;;;;;;2.63;0.90;;;;;;;;;;6161597;23;20069;-51
2022/12/06 09:19:03;;;;;;;2.30;0.60;;;;;;;;;;6166908;23;20017;-54
2022/12/06 09:21:33;;;;;;;1.83;1.38;;;;;;;;;;6159450;23;20017;-54
2022/12/06 09:23:59;;;;;;;1.27;0.30;;;;;;;;;;6141220;23;20096;-55
2022/12/06 09:26:27;;;;;;;2.75;0.63;;;;;;;;;;6138438;23;20466;-53
2022/12/06 09:28:54;;;;;;;0.90;0.10;;;;;;;;;;6150980;23;20017;-54
2022/12/06 09:31:21;;;;;;;1.17;0.20;;;;;;;;;;6155356;23;20025;-53
2022/12/06 09:33:47;;;;;;;4.10;0.65;;;;;;;;;;6146169;23;20025;-53
2022/12/06 09:36:15;;;;;;;1.50;0.20;;;;;;;;;;6154833;23;20535;-54
2022/12/06 09:38:48;;;;;;;1.88;0.20;;;;;;;;;;6152081;23;20024;-56
2022/12/06 09:41:23;;;;;;;2.15;0.68;;;;;;;;;;6152726;23;20040;-54
2022/12/06 09:43:55;;;;;;;1.20;0.33;;;;;;;;;;6144823;23;20017;-51
2022/12/06 09:46:29;;;;;;;1.70;0.38;;;;;;;;;;6151446;23;20024;-54
2022/12/06 09:49:03;;;;;;;2.10;0.65;;;;;;;;;;6154193;23;20396;-50
2022/12/06 09:51:37;;;;;;;1.50;0.40;;;;;;;;;;6150400;23;20467;-53
2022/12/06 09:54:15;;;;;;;1.17;0.30;;;;;;;;;;6147555;23;20036;-55
2022/12/06 09:56:43;;;;;;;1.40;0.30;;;;;;;;;;6153139;23;20367;-54
2022/12/06 09:59:14;;;;;;;1.17;0.20;;;;;;;;;;6151601;23;20017;-52
2022/12/06 10:01:46;;;;;;;1.40;0.30;;;;;;;;;;6155959;23;20017;-54
2022/12/06 10:04:25;;;;;;;2.05;0.68;;;;;;;;;;6143370;23;20024;-53
2022/12/06 10:06:55;;;;;;;1.38;0.30;;;;;;;;;;6150664;23;20063;-51
2022/12/06 10:09:29;;;;;;;1.57;0.40;;;;;;;;;;6156252;23;20017;-55
2022/12/06 10:12:01;;;;;;;1.90;0.55;;;;;;;;;;6151289;23;20504;-54
2022/12/06 10:14:36;;;;;;;1.08;0.17;;;;;;;;;;6145086;23;20088;-51
2022/12/06 10:17:05;;;;;;;1.05;0.20;;;;;;;;;;6151982;23;20032;-55
2022/12/06 10:19:42;;;;;;;1.42;0.40;;;;;;;;;;6164686;23;20024;-53
2022/12/06 10:22:12;;;;;;;2.20;0.57;;;;;;;;;;6167610;23;20059;-53
2022/12/06 10:24:48;;;;;;;1.98;0.82;;;;;;;;;;6167048;23;20448;-52
2022/12/06 10:27:20;;;;;;;1.30;0.20;;;;;;;;;;6165670;23;20048;-53
2022/12/06 10:29:52;;;;;;;2.20;1.08;;;;;;;;;;6169700;23;20024;-50
2022/12/06 10:32:23;;;;;;;1.98;0.60;;;;;;;;;;6165168;23;20047;-53
2022/12/06 10:34:54;;;;;;;1.43;0.40;;;;;;;;;;6170297;23;20075;-55
2022/12/06 10:37:26;;;;;;;1.73;0.40;;;;;;;;;;6165498;23;20017;-52
2022/12/06 10:40:00;;;;;;;1.10;0.20;;;;;;;;;;6162888;23;20336;-50
2022/12/06 10:42:31;;;;;;;1.27;0.32;;;;;;;;;;6157876;23;20017;-56
2022/12/06 10:45:00;;;;;;;1.40;0.40;;;;;;;;;;6151071;23;20100;-56
2022/12/06 10:47:27;;;;;;;1.20;0.20;;;;;;;;;;6158803;23;20021;-54
2022/12/06 10:49:56;;;;;;;1.63;0.57;;;;;;;;;;6154203;23;20021;-52
2022/12/06 10:52:26;;;;;;;1.75;0.28;;;;;;;;;;6154787;23;20013;-53
2022/12/06 10:54:57;;;;;;;1.20;0.20;;;;;;;;;;6148161;23;20028;-54
2022/12/06 10:57:28;;;;;;;1.35;0.30;;;;;;;;;;6155595;23;20017;-54
2022/12/06 10:59:58;;;;;;;2.00;0.40;;;;;;;;;;6129240;23;20087;-54
2022/12/06 11:02:28;;;;;;;1.52;0.40;;;;;;;;;;6158156;23;20352;-54
2022/12/06 11:04:59;;;;;;;1.90;0.68;;;;;;;;;;6148606;23;20021;-55
2022/12/06 11:07:27;;;;;;;1.17;0.20;;;;;;;;;;6158691;23;20021;-54
2022/12/06 11:09:55;;;;;;;1.08;0.20;;;;;;;;;;6149372;23;20473;-53
2022/12/06 11:12:23;;;;;;;2.23;0.50;;;;;;;;;;6155539;23;20032;-54
2022/12/06 11:14:52;;;;;;;1.30;0.30;;;;;;;;;;6145726;23;20017;-54
2022/12/06 11:17:21;;;;;;;1.10;0.20;;;;;;;;;;6156762;23;20515;-55
2022/12/06 11:19:49;;;;;;;1.10;0.20;;;;;;;;;;6154949;23;20024;-55
2022/12/06 11:22:22;;;;;;;1.33;0.40;;;;;;;;;;6157732;23;20101;-55
2022/12/06 11:24:50;;;;;;;2.50;0.83;;;;;;;;;;6139327;23;20143;-54
2022/12/06 11:27:21;;;;;;;1.50;0.30;;;;;;;;;;6153998;23;20024;-55
2022/12/06 11:29:48;;;;;;;1.40;0.30;;;;;;;;;;6158745;23;20037;-54
2022/12/06 11:32:16;;;;;;;1.50;0.55;;;;;;;;;;6155017;23;20079;-53
2022/12/06 11:34:46;;;;;;;1.30;0.40;;;;;;;;;;6151217;23;20017;-53
2022/12/06 11:37:15;;;;;;;0.90;0.20;;;;;;;;;;6128073;23;20025;-56
2022/12/06 11:39:42;;;;;;;1.55;0.35;;;;;;;;;;6159159;23;20012;-54
2022/12/06 11:42:14;;;;;;;1.20;0.20;;;;;;;;;;6151707;23;20031;-53
2022/12/06 11:44:42;;;;;;;1.08;0.13;;;;;;;;;;6144878;23;20028;-55
2022/12/06 11:47:11;;;;;;;1.27;0.30;;;;;;;;;;6128333;23;20044;-53
2022/12/06 11:49:41;;;;;;;0.90;0.10;;;;;;;;;;6155005;23;20057;-53
2022/12/06 11:52:08;;;;;;;1.50;0.43;;;;;;;;;;6128953;23;20040;-53
2022/12/06 11:54:38;;;;;;;0.95;0.30;;;;;;;;;;6146595;23;20017;-54
2022/12/06 11:57:13;;;;;;;1.33;0.40;;;;;;;;;;6157670;23;20083;-55
2022/12/06 11:59:39;;;;;;;6.88;1.10;;;;;;;;;;6153256;23;20070;-52
2022/12/06 12:02:06;;;;;;;1.40;0.33;;;;;;;;;;6157275;23;20027;-55
2022/12/06 12:04:37;;;;;;;1.58;0.32;;;;;;;;;;6143924;23;20499;-54
2022/12/06 12:07:10;;;;;;;1.80;0.55;;;;;;;;;;6143878;23;20498;-53
2022/12/06 12:09:45;;;;;;;1.15;0.32;;;;;;;;;;6150303;23;20017;-47
2022/12/06 12:12:15;;;;;;;2.40;0.28;;;;;;;;;;6156548;23;20021;-54
2022/12/06 12:14:42;;;;;;;0.90;0.20;;;;;;;;;;6144592;23;20017;-57
2022/12/06 12:17:15;;;;;;;0.90;0.13;;;;;;;;;;6154742;23;20025;-54
2022/12/06 12:19:45;;;;;;;1.00;0.40;;;;;;;;;;6155064;23;20017;-53
2022/12/06 12:22:21;;;;;;;0.77;0.10;;;;;;;;;;6154206;23;20040;-53
2022/12/06 12:24:49;;;;;;;1.45;0.20;;;;;;;;;;6140693;23;20032;-54
2022/12/06 12:27:39;;;;;;;0.90;0.10;;;;;;;;;;6153043;23;20071;-54
2022/12/06 12:30:23;;;;;;;0.88;0.10;;;;;;;;;;6113161;23;20352;-54
2022/12/06 12:32:51;;;;;;;1.05;0.20;;;;;;;;;;6155701;23;20388;-51
2022/12/06 12:35:26;;;;;;;0.90;0.15;;;;;;;;;;6151940;23;20442;-53
2022/12/06 12:37:57;;;;;;;1.30;0.30;;;;;;;;;;6155352;23;20024;-51
2022/12/06 12:40:24;;;;;;;1.77;0.20;;;;;;;;;;6151610;23;20033;-52
2022/12/06 12:42:58;;;;;;;1.15;0.20;;;;;;;;;;6156111;23;20027;-53
2022/12/06 12:45:26;;;;;;;1.00;0.20;;;;;;;;;;6145809;23;20025;-55
2022/12/06 12:47:57;;;;;;;1.48;0.43;;;;;;;;;;6153105;23;20582;-51
2022/12/06 12:50:25;;;;;;;0.93;0.20;;;;;;;;;;6152853;23;20021;-53
2022/12/06 12:52:52;;;;;;;1.07;0.20;;;;;;;;;;6155283;23;20017;-52
2022/12/06 12:55:21;;;;;;;2.25;0.30;;;;;;;;;;6146535;23;20037;-55
2022/12/06 12:57:49;;;;;;;1.27;0.30;;;;;;;;;;6154372;23;20245;-53
2022/12/06 13:00:15;;;;;;;1.95;0.60;;;;;;;;;;6155706;23;20039;-53
2022/12/06 13:02:43;;;;;;;1.13;0.20;;;;;;;;;;6150639;23;20329;-53
2022/12/06 13:05:14;;;;;;;2.17;0.40;;;;;;;;;;6145672;23;20017;-53
2022/12/06 13:07:41;;;;;;;1.17;0.30;;;;;;;;;;6147649;23;20553;-56
2022/12/06 13:10:12;;;;;;;1.10;0.20;;;;;;;;;;6151218;23;20017;-50
2022/12/06 13:12:41;;;;;;;1.75;0.50;;;;;;;;;;6152908;23;20025;-50
2022/12/06 13:15:12;;;;;;;1.40;0.20;;;;;;;;;;6144112;23;20017;-52
2022/12/06 13:17:41;;;;;;;1.83;0.50;;;;;;;;;;6153373;23;20028;-52
2022/12/06 13:20:18;;;;;;;1.35;0.20;;;;;;;;;;6155293;23;20273;-53
2022/12/06 13:22:46;;;;;;;2.28;0.73;;;;;;;;;;6149057;23;20024;-54
2022/12/06 13:25:12;;;;;;;1.48;0.38;;;;;;;;;;6140746;23;20017;-53
2022/12/06 13:27:42;;;;;;;2.05;0.50;;;;;;;;;;6152648;23;20035;-54
2022/12/06 13:30:12;;;;;;;1.90;0.40;;;;;;;;;;6147046;23;20603;-54
2022/12/06 13:32:41;;;;;;;1.42;0.38;;;;;;;;;;6149209;23;20017;-49
2022/12/06 13:35:13;;;;;;;2.20;0.73;;;;;;;;;;6139981;23;20029;-50
2022/12/06 13:37:44;;;;;;;1.60;0.40;;;;;;;;;;6148778;23;20075;-54
2022/12/06 13:40:25;;;;;;;1.05;0.17;;;;;;;;;;6147328;23;20017;-53
2022/12/06 13:42:54;;;;;;;0.80;0.10;;;;;;;;;;6151250;23;20024;-54
2022/12/06 13:45:38;;;;;;;1.45;0.20;;;;;;;;;;6144182;23;20523;-54
2022/12/06 13:48:20;;;;;;;1.52;0.43;;;;;;;;;;6153806;23;20020;-53
2022/12/06 13:50:51;;;;;;;3.28;0.47;;;;;;;;;;6147779;23;20017;-52
2022/12/06 13:53:18;;;;;;;1.65;0.43;;;;;;;;;;6145441;23;20818;-53
2022/12/06 13:56:02;;;;;;;1.37;0.30;;;;;;;;;;6148080;23;20021;-48
2022/12/06 13:58:40;;;;;;;0.95;0.10;;;;;;;;;;6153372;23;20522;-53
2022/12/06 14:01:22;;;;;;;1.30;0.30;;;;;;;;;;6147895;23;20024;-55
2022/12/06 14:03:54;;;;;;;1.40;0.22;;;;;;;;;;6142179;23;20021;-50
2022/12/06 14:06:21;;;;;;;2.10;0.30;;;;;;;;;;6144630;23;20451;-55
2022/12/06 14:08:53;;;;;;;1.20;0.40;;;;;;;;;;6153228;23;20025;-52
2022/12/06 14:11:21;;;;;;;1.02;0.20;;;;;;;;;;6149548;23;20883;-52
2022/12/06 14:13:58;;;;;;;1.10;0.20;;;;;;;;;;6149626;23;20021;-55
2022/12/06 14:16:28;;;;;;;1.27;0.30;;;;;;;;;;6151160;23;20351;-53
2022/12/06 14:18:54;;;;;;;0.93;0.17;;;;;;;;;;6160023;23;20021;-50
2022/12/06 14:21:23;;;;;;;1.17;0.27;;;;;;;;;;6168113;23;20027;-51
2022/12/06 14:23:50;;;;;;;0.85;0.30;;;;;;;;;;6171146;23;20430;-51
2022/12/06 14:26:19;;;;;;;0.80;0.10;;;;;;;;;;6163222;23;20013;-51
2022/12/06 14:28:46;;;;;;;0.93;0.10;;;;;;;;;;6169861;23;20025;-54
2022/12/06 14:31:25;;;;;;;1.42;0.52;;;;;;;;;;6168320;23;20017;-52
2022/12/06 14:33:52;;;;;;;1.40;0.40;;;;;;;;;;6166905;23;21031;-48
2022/12/06 14:36:20;;;;;;;2.30;0.68;;;;;;;;;;6169827;23;20021;-52
2022/12/06 14:38:55;;;;;;;3.78;0.80;;;;;;;;;;6167119;23;20021;-54
2022/12/06 14:44:11;;;;;;;1.17;0.28;;;;;;;;;;6168026;23;20541;-54
2022/12/06 14:46:42;;;;;;;1.43;0.30;;;;;;;;;;6168443;23;20029;-48
2022/12/06 14:51:52;;;;;;;1.55;0.40;;;;;;;;;;6133272;23;20035;-53
2022/12/06 14:54:19;;;;;;;1.35;0.38;;;;;;;;;;6155094;23;20657;-54
2022/12/06 14:56:45;;;;;;;2.08;0.75;;;;;;;;;;6153118;23;20041;-53
2022/12/06 14:59:12;;;;;;;1.27;0.20;;;;;;;;;;6151240;23;20029;-53
2022/12/06 15:01:47;;;;;;;1.10;0.30;;;;;;;;;;6153991;23;20013;-50
2022/12/06 15:04:24;;;;;;;1.33;0.47;;;;;;;;;;6140907;23;20023;-53
2022/12/06 15:06:52;;;;;;;0.95;0.20;;;;;;;;;;6146841;23;20025;-55
2022/12/06 15:09:20;;;;;;;1.92;0.28;;;;;;;;;;6150001;23;20021;-52
2022/12/06 15:14:46;;;;;;;2.63;0.30;;;;;;;;;;6134224;23;20035;-52
2022/12/06 15:17:17;;;;;;;1.52;0.40;;;;;;;;;;6142778;23;20202;-53
2022/12/06 15:19:46;;;;;;;1.20;0.20;;;;;;;;;;6143787;23;20463;-49
2022/12/06 15:22:15;;;;;;;1.48;0.47;;;;;;;;;;6142560;23;20470;-51
2022/12/06 15:24:43;;;;;;;1.03;0.20;;;;;;;;;;6137165;23;20052;-53